sensor_id;sensor_type;location;lat;lon;timestamp;P1;durP1;ratioP1;P2;durP2;ratioP2
17059;SDS011;8646;49.716;9.266;2023-06-04T00:03:02;2.33;;;0.90;;
17059;SDS011;8646;49.716;9.266;2023-06-04T00:06:05;1.10;;;1.00;;
17059;SDS011;8646;49.716;9.266;2023-06-04T00:09:09;2.13;;;1.20;;
17059;SDS011;8646;49.716;9.266;2023-06-04T00:12:12;3.43;;;1.00;;
17059;SDS011;8646;49.716;9.266;2023-06-04T00:15:15;1.20;;;1.10;;
17059;SDS011;8646;49.716;9.266;2023-06-04T00:18:19;1.30;;;1.20;;
17059;SDS011;8646;49.716;9.266;2023-06-04T00:21:22;2.83;;;1.13;;
17059;SDS011;8646;49.716;9.266;2023-06-04T00:24:25;3.13;;;1.27;;
17059;SDS011;8646;49.716;9.266;2023-06-04T00:27:28;3.40;;;1.10;;
17059;SDS011;8646;49.716;9.266;2023-06-04T00:30:31;1.40;;;1.17;;
17059;SDS011;8646;49.716;9.266;2023-06-04T00:33:35;2.13;;;1.20;;
17059;SDS011;8646;49.716;9.266;2023-06-04T00:36:38;1.73;;;1.30;;
17059;SDS011;8646;49.716;9.266;2023-06-04T00:39:41;1.47;;;1.00;;
17059;SDS011;8646;49.716;9.266;2023-06-04T00:42:44;1.50;;;1.10;;
17059;SDS011;8646;49.716;9.266;2023-06-04T00:45:47;2.37;;;1.30;;
17059;SDS011;8646;49.716;9.266;2023-06-04T00:48:51;2.10;;;1.40;;
17059;SDS011;8646;49.716;9.266;2023-06-04T00:51:54;1.63;;;1.40;;
17059;SDS011;8646;49.716;9.266;2023-06-04T00:54:57;2.07;;;1.30;;
17059;SDS011;8646;49.716;9.266;2023-06-04T00:58:01;3.63;;;1.63;;
17059;SDS011;8646;49.716;9.266;2023-06-04T01:01:06;6.60;;;1.70;;
17059;SDS011;8646;49.716;9.266;2023-06-04T01:04:16;4.33;;;2.00;;
17059;SDS011;8646;49.716;9.266;2023-06-04T01:07:26;3.40;;;1.67;;
17059;SDS011;8646;49.716;9.266;2023-06-04T01:10:30;2.80;;;1.70;;
17059;SDS011;8646;49.716;9.266;2023-06-04T01:13:32;2.87;;;1.67;;
17059;SDS011;8646;49.716;9.266;2023-06-04T01:16:36;3.33;;;1.40;;
17059;SDS011;8646;49.716;9.266;2023-06-04T01:19:56;2.80;;;1.60;;
17059;SDS011;8646;49.716;9.266;2023-06-04T01:23:12;2.30;;;1.77;;
17059;SDS011;8646;49.716;9.266;2023-06-04T01:26:21;2.97;;;1.90;;
17059;SDS011;8646;49.716;9.266;2023-06-04T01:29:24;2.50;;;1.60;;
17059;SDS011;8646;49.716;9.266;2023-06-04T01:32:31;3.33;;;1.80;;
17059;SDS011;8646;49.716;9.266;2023-06-04T01:35:35;2.73;;;2.00;;
17059;SDS011;8646;49.716;9.266;2023-06-04T01:38:38;3.70;;;2.00;;
17059;SDS011;8646;49.716;9.266;2023-06-04T01:41:41;3.63;;;2.00;;
17059;SDS011;8646;49.716;9.266;2023-06-04T01:44:44;2.00;;;1.50;;
17059;SDS011;8646;49.716;9.266;2023-06-04T01:47:47;1.83;;;1.40;;
17059;SDS011;8646;49.716;9.266;2023-06-04T01:50:51;2.73;;;1.43;;
17059;SDS011;8646;49.716;9.266;2023-06-04T01:53:54;1.37;;;1.20;;
17059;SDS011;8646;49.716;9.266;2023-06-04T01:56:56;2.00;;;1.17;;
17059;SDS011;8646;49.716;9.266;2023-06-04T01:59:59;2.30;;;1.30;;
17059;SDS011;8646;49.716;9.266;2023-06-04T02:03:02;2.57;;;1.40;;
17059;SDS011;8646;49.716;9.266;2023-06-04T02:06:07;1.87;;;1.40;;
17059;SDS011;8646;49.716;9.266;2023-06-04T02:09:10;2.57;;;1.40;;
17059;SDS011;8646;49.716;9.266;2023-06-04T02:12:13;2.07;;;1.30;;
17059;SDS011;8646;49.716;9.266;2023-06-04T02:15:16;2.03;;;1.47;;
17059;SDS011;8646;49.716;9.266;2023-06-04T02:18:19;2.37;;;1.70;;
17059;SDS011;8646;49.716;9.266;2023-06-04T02:21:24;3.07;;;1.20;;
17059;SDS011;8646;49.716;9.266;2023-06-04T02:24:27;1.83;;;1.40;;
17059;SDS011;8646;49.716;9.266;2023-06-04T02:27:30;1.40;;;1.10;;
17059;SDS011;8646;49.716;9.266;2023-06-04T02:30:33;3.30;;;1.70;;
17059;SDS011;8646;49.716;9.266;2023-06-04T02:33:36;1.90;;;1.40;;
17059;SDS011;8646;49.716;9.266;2023-06-04T02:36:41;2.13;;;1.50;;
17059;SDS011;8646;49.716;9.266;2023-06-04T02:39:52;1.93;;;1.40;;
17059;SDS011;8646;49.716;9.266;2023-06-04T02:42:55;4.20;;;1.50;;
17059;SDS011;8646;49.716;9.266;2023-06-04T02:45:58;2.00;;;1.40;;
17059;SDS011;8646;49.716;9.266;2023-06-04T02:49:01;2.07;;;1.37;;
17059;SDS011;8646;49.716;9.266;2023-06-04T02:52:05;1.47;;;1.20;;
17059;SDS011;8646;49.716;9.266;2023-06-04T02:55:09;2.73;;;1.20;;
17059;SDS011;8646;49.716;9.266;2023-06-04T02:58:13;3.50;;;1.50;;
17059;SDS011;8646;49.716;9.266;2023-06-04T03:01:18;1.53;;;1.10;;
17059;SDS011;8646;49.716;9.266;2023-06-04T03:04:22;2.00;;;1.20;;
17059;SDS011;8646;49.716;9.266;2023-06-04T03:07:26;1.50;;;1.10;;
17059;SDS011;8646;49.716;9.266;2023-06-04T03:10:29;1.97;;;1.27;;
17059;SDS011;8646;49.716;9.266;2023-06-04T03:13:32;1.87;;;1.30;;
17059;SDS011;8646;49.716;9.266;2023-06-04T03:16:35;2.00;;;1.20;;
17059;SDS011;8646;49.716;9.266;2023-06-04T03:19:41;1.93;;;1.40;;
17059;SDS011;8646;49.716;9.266;2023-06-04T03:22:45;1.30;;;1.20;;
17059;SDS011;8646;49.716;9.266;2023-06-04T03:25:48;1.60;;;1.27;;
17059;SDS011;8646;49.716;9.266;2023-06-04T03:28:51;1.43;;;1.20;;
17059;SDS011;8646;49.716;9.266;2023-06-04T03:31:54;4.93;;;1.40;;
17059;SDS011;8646;49.716;9.266;2023-06-04T03:34:57;2.90;;;1.10;;
17059;SDS011;8646;49.716;9.266;2023-06-04T03:38:01;2.17;;;1.47;;
17059;SDS011;8646;49.716;9.266;2023-06-04T03:41:03;2.90;;;1.30;;
17059;SDS011;8646;49.716;9.266;2023-06-04T03:44:07;1.83;;;1.40;;
17059;SDS011;8646;49.716;9.266;2023-06-04T03:47:09;2.43;;;1.30;;
17059;SDS011;8646;49.716;9.266;2023-06-04T03:50:12;1.30;;;1.20;;
17059;SDS011;8646;49.716;9.266;2023-06-04T03:53:16;2.03;;;1.33;;
17059;SDS011;8646;49.716;9.266;2023-06-04T03:56:19;1.90;;;1.20;;
17059;SDS011;8646;49.716;9.266;2023-06-04T03:59:22;1.50;;;1.10;;
17059;SDS011;8646;49.716;9.266;2023-06-04T04:02:25;1.83;;;1.10;;
17059;SDS011;8646;49.716;9.266;2023-06-04T04:05:28;3.03;;;1.10;;
17059;SDS011;8646;49.716;9.266;2023-06-04T04:08:32;1.43;;;1.10;;
17059;SDS011;8646;49.716;9.266;2023-06-04T04:11:35;1.57;;;1.37;;
17059;SDS011;8646;49.716;9.266;2023-06-04T04:14:38;2.17;;;1.27;;
17059;SDS011;8646;49.716;9.266;2023-06-04T04:17:41;1.40;;;1.10;;
17059;SDS011;8646;49.716;9.266;2023-06-04T04:20:44;2.33;;;1.33;;
17059;SDS011;8646;49.716;9.266;2023-06-04T04:23:48;1.20;;;1.10;;
17059;SDS011;8646;49.716;9.266;2023-06-04T04:26:51;1.30;;;1.20;;
17059;SDS011;8646;49.716;9.266;2023-06-04T04:29:55;3.43;;;1.20;;
17059;SDS011;8646;49.716;9.266;2023-06-04T04:33:01;1.50;;;1.30;;
17059;SDS011;8646;49.716;9.266;2023-06-04T04:36:06;1.10;;;1.00;;
17059;SDS011;8646;49.716;9.266;2023-06-04T04:39:15;2.43;;;1.33;;
17059;SDS011;8646;49.716;9.266;2023-06-04T04:42:18;2.13;;;1.20;;
17059;SDS011;8646;49.716;9.266;2023-06-04T04:45:21;3.87;;;1.40;;
17059;SDS011;8646;49.716;9.266;2023-06-04T04:48:24;2.00;;;1.30;;
17059;SDS011;8646;49.716;9.266;2023-06-04T04:51:27;1.53;;;1.10;;
17059;SDS011;8646;49.716;9.266;2023-06-04T04:54:31;4.10;;;1.27;;
17059;SDS011;8646;49.716;9.266;2023-06-04T04:57:34;1.70;;;1.10;;
17059;SDS011;8646;49.716;9.266;2023-06-04T05:00:37;1.40;;;1.30;;
17059;SDS011;8646;49.716;9.266;2023-06-04T05:03:40;2.80;;;1.30;;
17059;SDS011;8646;49.716;9.266;2023-06-04T05:06:43;1.70;;;1.10;;
17059;SDS011;8646;49.716;9.266;2023-06-04T05:09:47;2.27;;;1.30;;
17059;SDS011;8646;49.716;9.266;2023-06-04T05:12:50;2.10;;;1.40;;
17059;SDS011;8646;49.716;9.266;2023-06-04T05:15:54;1.93;;;1.27;;
17059;SDS011;8646;49.716;9.266;2023-06-04T05:18:58;2.43;;;1.27;;
17059;SDS011;8646;49.716;9.266;2023-06-04T05:22:02;2.87;;;1.37;;
17059;SDS011;8646;49.716;9.266;2023-06-04T05:25:07;1.97;;;1.17;;
17059;SDS011;8646;49.716;9.266;2023-06-04T05:28:11;1.70;;;1.30;;
17059;SDS011;8646;49.716;9.266;2023-06-04T05:31:14;3.43;;;1.30;;
17059;SDS011;8646;49.716;9.266;2023-06-04T05:34:17;1.77;;;1.30;;
17059;SDS011;8646;49.716;9.266;2023-06-04T05:37:20;6.83;;;1.40;;
17059;SDS011;8646;49.716;9.266;2023-06-04T05:40:26;3.47;;;0.93;;
17059;SDS011;8646;49.716;9.266;2023-06-04T05:43:29;2.53;;;1.10;;
17059;SDS011;8646;49.716;9.266;2023-06-04T05:46:32;2.63;;;1.20;;
17059;SDS011;8646;49.716;9.266;2023-06-04T05:49:35;3.07;;;1.30;;
17059;SDS011;8646;49.716;9.266;2023-06-04T05:52:37;2.87;;;1.30;;
17059;SDS011;8646;49.716;9.266;2023-06-04T05:55:42;1.90;;;1.30;;
17059;SDS011;8646;49.716;9.266;2023-06-04T05:58:50;2.13;;;1.40;;
17059;SDS011;8646;49.716;9.266;2023-06-04T06:01:53;3.13;;;1.40;;
17059;SDS011;8646;49.716;9.266;2023-06-04T06:04:56;3.17;;;1.20;;
17059;SDS011;8646;49.716;9.266;2023-06-04T06:07:59;2.03;;;1.20;;
17059;SDS011;8646;49.716;9.266;2023-06-04T06:11:04;2.80;;;1.20;;
17059;SDS011;8646;49.716;9.266;2023-06-04T06:14:11;3.93;;;1.10;;
17059;SDS011;8646;49.716;9.266;2023-06-04T06:17:14;1.20;;;1.10;;
17059;SDS011;8646;49.716;9.266;2023-06-04T06:20:17;1.73;;;1.10;;
17059;SDS011;8646;49.716;9.266;2023-06-04T06:23:20;1.50;;;1.20;;
17059;SDS011;8646;49.716;9.266;2023-06-04T06:26:26;2.10;;;1.17;;
17059;SDS011;8646;49.716;9.266;2023-06-04T06:29:30;2.57;;;1.17;;
17059;SDS011;8646;49.716;9.266;2023-06-04T06:32:33;1.50;;;1.10;;
17059;SDS011;8646;49.716;9.266;2023-06-04T06:35:36;1.83;;;1.27;;
17059;SDS011;8646;49.716;9.266;2023-06-04T06:38:39;1.90;;;1.20;;
17059;SDS011;8646;49.716;9.266;2023-06-04T06:41:44;1.87;;;1.40;;
17059;SDS011;8646;49.716;9.266;2023-06-04T06:44:47;1.23;;;1.10;;
17059;SDS011;8646;49.716;9.266;2023-06-04T06:47:50;1.43;;;1.33;;
17059;SDS011;8646;49.716;9.266;2023-06-04T06:50:53;1.60;;;1.20;;
17059;SDS011;8646;49.716;9.266;2023-06-04T06:53:56;1.60;;;1.17;;
17059;SDS011;8646;49.716;9.266;2023-06-04T06:57:00;3.17;;;1.30;;
17059;SDS011;8646;49.716;9.266;2023-06-04T07:00:04;1.60;;;1.30;;
17059;SDS011;8646;49.716;9.266;2023-06-04T07:03:08;1.73;;;1.10;;
17059;SDS011;8646;49.716;9.266;2023-06-04T07:06:11;2.03;;;1.30;;
17059;SDS011;8646;49.716;9.266;2023-06-04T07:09:14;2.17;;;1.20;;
17059;SDS011;8646;49.716;9.266;2023-06-04T07:12:18;1.40;;;1.30;;
17059;SDS011;8646;49.716;9.266;2023-06-04T07:15:21;1.33;;;1.13;;
17059;SDS011;8646;49.716;9.266;2023-06-04T07:18:24;2.20;;;1.37;;
17059;SDS011;8646;49.716;9.266;2023-06-04T07:21:27;1.87;;;1.40;;
17059;SDS011;8646;49.716;9.266;2023-06-04T07:24:30;2.70;;;1.20;;
17059;SDS011;8646;49.716;9.266;2023-06-04T07:27:34;1.30;;;1.20;;
17059;SDS011;8646;49.716;9.266;2023-06-04T07:30:37;1.87;;;1.40;;
17059;SDS011;8646;49.716;9.266;2023-06-04T07:33:40;2.13;;;1.40;;
17059;SDS011;8646;49.716;9.266;2023-06-04T07:36:44;3.43;;;1.30;;
17059;SDS011;8646;49.716;9.266;2023-06-04T07:39:47;1.97;;;1.23;;
17059;SDS011;8646;49.716;9.266;2023-06-04T07:42:51;1.73;;;1.10;;
17059;SDS011;8646;49.716;9.266;2023-06-04T07:45:54;2.00;;;1.50;;
17059;SDS011;8646;49.716;9.266;2023-06-04T07:48:57;2.30;;;1.40;;
17059;SDS011;8646;49.716;9.266;2023-06-04T07:52:00;2.00;;;1.40;;
17059;SDS011;8646;49.716;9.266;2023-06-04T07:55:03;4.47;;;1.20;;
17059;SDS011;8646;49.716;9.266;2023-06-04T07:58:07;2.03;;;1.50;;
17059;SDS011;8646;49.716;9.266;2023-06-04T08:01:10;1.30;;;1.20;;
17059;SDS011;8646;49.716;9.266;2023-06-04T08:04:13;1.53;;;1.30;;
17059;SDS011;8646;49.716;9.266;2023-06-04T08:07:18;1.90;;;1.30;;
17059;SDS011;8646;49.716;9.266;2023-06-04T08:10:21;1.67;;;1.33;;
17059;SDS011;8646;49.716;9.266;2023-06-04T08:13:25;3.40;;;1.50;;
17059;SDS011;8646;49.716;9.266;2023-06-04T08:16:28;1.80;;;1.47;;
17059;SDS011;8646;49.716;9.266;2023-06-04T08:19:33;4.50;;;1.50;;
17059;SDS011;8646;49.716;9.266;2023-06-04T08:22:36;2.60;;;1.37;;
17059;SDS011;8646;49.716;9.266;2023-06-04T08:25:39;2.83;;;1.10;;
17059;SDS011;8646;49.716;9.266;2023-06-04T08:28:44;1.43;;;1.10;;
17059;SDS011;8646;49.716;9.266;2023-06-04T08:31:47;2.13;;;1.10;;
17059;SDS011;8646;49.716;9.266;2023-06-04T08:34:49;2.13;;;1.57;;
17059;SDS011;8646;49.716;9.266;2023-06-04T08:37:52;2.03;;;1.37;;
17059;SDS011;8646;49.716;9.266;2023-06-04T08:40:55;1.90;;;1.30;;
17059;SDS011;8646;49.716;9.266;2023-06-04T08:44:06;2.23;;;1.27;;
17059;SDS011;8646;49.716;9.266;2023-06-04T08:47:09;1.83;;;1.23;;
17059;SDS011;8646;49.716;9.266;2023-06-04T08:50:16;1.70;;;1.30;;
17059;SDS011;8646;49.716;9.266;2023-06-04T08:53:20;2.20;;;1.10;;
17059;SDS011;8646;49.716;9.266;2023-06-04T08:56:24;1.43;;;1.20;;
17059;SDS011;8646;49.716;9.266;2023-06-04T08:59:31;2.03;;;1.20;;
17059;SDS011;8646;49.716;9.266;2023-06-04T09:02:35;3.23;;;1.33;;
17059;SDS011;8646;49.716;9.266;2023-06-04T09:05:39;2.40;;;1.40;;
17059;SDS011;8646;49.716;9.266;2023-06-04T09:08:49;2.10;;;1.37;;
17059;SDS011;8646;49.716;9.266;2023-06-04T09:11:58;1.70;;;1.40;;
17059;SDS011;8646;49.716;9.266;2023-06-04T09:15:08;1.53;;;1.30;;
17059;SDS011;8646;49.716;9.266;2023-06-04T09:18:11;1.27;;;1.10;;
17059;SDS011;8646;49.716;9.266;2023-06-04T09:21:15;3.50;;;1.20;;
17059;SDS011;8646;49.716;9.266;2023-06-04T09:24:18;2.20;;;1.20;;
17059;SDS011;8646;49.716;9.266;2023-06-04T09:27:21;1.90;;;1.10;;
17059;SDS011;8646;49.716;9.266;2023-06-04T09:30:25;1.77;;;1.20;;
17059;SDS011;8646;49.716;9.266;2023-06-04T09:33:28;3.80;;;1.50;;
17059;SDS011;8646;49.716;9.266;2023-06-04T09:36:31;1.77;;;1.20;;
17059;SDS011;8646;49.716;9.266;2023-06-04T09:39:35;1.50;;;1.20;;
17059;SDS011;8646;49.716;9.266;2023-06-04T09:42:41;2.20;;;1.30;;
17059;SDS011;8646;49.716;9.266;2023-06-04T09:45:46;2.23;;;1.50;;
17059;SDS011;8646;49.716;9.266;2023-06-04T09:48:58;1.23;;;1.13;;
17059;SDS011;8646;49.716;9.266;2023-06-04T09:52:03;1.50;;;1.07;;
17059;SDS011;8646;49.716;9.266;2023-06-04T09:55:16;4.80;;;1.37;;
17059;SDS011;8646;49.716;9.266;2023-06-04T09:58:21;2.37;;;1.30;;
17059;SDS011;8646;49.716;9.266;2023-06-04T10:01:28;2.00;;;1.30;;
17059;SDS011;8646;49.716;9.266;2023-06-04T10:04:32;2.07;;;1.20;;
17059;SDS011;8646;49.716;9.266;2023-06-04T10:07:37;2.13;;;1.30;;
17059;SDS011;8646;49.716;9.266;2023-06-04T10:10:42;3.20;;;1.37;;
17059;SDS011;8646;49.716;9.266;2023-06-04T10:13:48;1.53;;;1.33;;
17059;SDS011;8646;49.716;9.266;2023-06-04T10:16:57;1.73;;;1.40;;
17059;SDS011;8646;49.716;9.266;2023-06-04T10:20:01;1.60;;;1.20;;
17059;SDS011;8646;49.716;9.266;2023-06-04T10:23:07;1.63;;;1.30;;
17059;SDS011;8646;49.716;9.266;2023-06-04T10:26:13;2.60;;;1.40;;
17059;SDS011;8646;49.716;9.266;2023-06-04T10:29:16;1.73;;;1.40;;
17059;SDS011;8646;49.716;9.266;2023-06-04T10:32:21;2.00;;;1.30;;
17059;SDS011;8646;49.716;9.266;2023-06-04T10:35:31;1.37;;;1.20;;
17059;SDS011;8646;49.716;9.266;2023-06-04T10:38:34;2.70;;;1.40;;
17059;SDS011;8646;49.716;9.266;2023-06-04T10:41:56;1.93;;;1.30;;
17059;SDS011;8646;49.716;9.266;2023-06-04T10:45:00;1.43;;;1.13;;
17059;SDS011;8646;49.716;9.266;2023-06-04T10:48:06;1.83;;;1.40;;
17059;SDS011;8646;49.716;9.266;2023-06-04T10:51:10;2.03;;;1.47;;
17059;SDS011;8646;49.716;9.266;2023-06-04T10:54:21;1.50;;;1.30;;
17059;SDS011;8646;49.716;9.266;2023-06-04T10:57:25;5.17;;;1.50;;
17059;SDS011;8646;49.716;9.266;2023-06-04T11:00:35;2.27;;;1.43;;
17059;SDS011;8646;49.716;9.266;2023-06-04T11:03:40;1.83;;;1.50;;
17059;SDS011;8646;49.716;9.266;2023-06-04T11:06:43;1.63;;;1.30;;
17059;SDS011;8646;49.716;9.266;2023-06-04T11:09:49;2.17;;;1.50;;
17059;SDS011;8646;49.716;9.266;2023-06-04T11:12:53;2.00;;;1.40;;
17059;SDS011;8646;49.716;9.266;2023-06-04T11:15:55;2.33;;;1.40;;
17059;SDS011;8646;49.716;9.266;2023-06-04T11:19:00;1.70;;;1.20;;
17059;SDS011;8646;49.716;9.266;2023-06-04T11:22:03;2.40;;;1.50;;
17059;SDS011;8646;49.716;9.266;2023-06-04T11:25:07;1.43;;;1.30;;
17059;SDS011;8646;49.716;9.266;2023-06-04T11:28:14;4.00;;;1.20;;
17059;SDS011;8646;49.716;9.266;2023-06-04T11:31:19;2.33;;;1.50;;
17059;SDS011;8646;49.716;9.266;2023-06-04T11:34:24;2.67;;;1.37;;
17059;SDS011;8646;49.716;9.266;2023-06-04T11:37:27;2.20;;;1.20;;
17059;SDS011;8646;49.716;9.266;2023-06-04T11:40:32;1.40;;;1.30;;
17059;SDS011;8646;49.716;9.266;2023-06-04T11:43:34;1.30;;;1.20;;
17059;SDS011;8646;49.716;9.266;2023-06-04T11:46:40;2.30;;;1.30;;
17059;SDS011;8646;49.716;9.266;2023-06-04T11:49:45;1.20;;;1.10;;
17059;SDS011;8646;49.716;9.266;2023-06-04T11:52:51;1.60;;;1.47;;
17059;SDS011;8646;49.716;9.266;2023-06-04T11:55:55;1.70;;;1.43;;
17059;SDS011;8646;49.716;9.266;2023-06-04T11:58:57;1.50;;;1.30;;
17059;SDS011;8646;49.716;9.266;2023-06-04T12:02:01;1.87;;;1.30;;
17059;SDS011;8646;49.716;9.266;2023-06-04T12:05:13;2.20;;;1.30;;
17059;SDS011;8646;49.716;9.266;2023-06-04T12:08:16;1.77;;;1.20;;
17059;SDS011;8646;49.716;9.266;2023-06-04T12:11:24;1.87;;;1.30;;
17059;SDS011;8646;49.716;9.266;2023-06-04T12:14:29;2.47;;;1.50;;
17059;SDS011;8646;49.716;9.266;2023-06-04T12:17:32;1.50;;;1.20;;
17059;SDS011;8646;49.716;9.266;2023-06-04T12:20:37;1.30;;;1.20;;
17059;SDS011;8646;49.716;9.266;2023-06-04T12:23:41;2.77;;;1.30;;
17059;SDS011;8646;49.716;9.266;2023-06-04T12:26:43;3.20;;;1.50;;
17059;SDS011;8646;49.716;9.266;2023-06-04T12:29:59;2.20;;;1.57;;
17059;SDS011;8646;49.716;9.266;2023-06-04T12:33:03;1.30;;;1.20;;
17059;SDS011;8646;49.716;9.266;2023-06-04T12:36:07;1.67;;;1.40;;
17059;SDS011;8646;49.716;9.266;2023-06-04T12:39:10;2.00;;;1.50;;
17059;SDS011;8646;49.716;9.266;2023-06-04T12:42:13;1.40;;;1.10;;
17059;SDS011;8646;49.716;9.266;2023-06-04T12:45:16;2.00;;;1.47;;
17059;SDS011;8646;49.716;9.266;2023-06-04T12:48:19;2.60;;;1.30;;
17059;SDS011;8646;49.716;9.266;2023-06-04T12:51:23;1.67;;;1.47;;
17059;SDS011;8646;49.716;9.266;2023-06-04T12:54:26;2.50;;;1.33;;
17059;SDS011;8646;49.716;9.266;2023-06-04T12:57:29;1.20;;;1.10;;
17059;SDS011;8646;49.716;9.266;2023-06-04T13:00:32;2.00;;;1.30;;
17059;SDS011;8646;49.716;9.266;2023-06-04T13:03:36;4.60;;;1.53;;
17059;SDS011;8646;49.716;9.266;2023-06-04T13:06:41;1.63;;;1.40;;
17059;SDS011;8646;49.716;9.266;2023-06-04T13:09:44;1.37;;;1.27;;
17059;SDS011;8646;49.716;9.266;2023-06-04T13:12:47;1.77;;;1.40;;
17059;SDS011;8646;49.716;9.266;2023-06-04T13:15:49;2.43;;;1.67;;
17059;SDS011;8646;49.716;9.266;2023-06-04T13:18:52;2.33;;;1.53;;
17059;SDS011;8646;49.716;9.266;2023-06-04T13:21:57;1.43;;;1.30;;
17059;SDS011;8646;49.716;9.266;2023-06-04T13:24:59;2.07;;;1.60;;
17059;SDS011;8646;49.716;9.266;2023-06-04T13:28:03;1.73;;;1.30;;
17059;SDS011;8646;49.716;9.266;2023-06-04T13:31:06;1.63;;;1.50;;
17059;SDS011;8646;49.716;9.266;2023-06-04T13:34:09;1.97;;;1.37;;
17059;SDS011;8646;49.716;9.266;2023-06-04T13:37:29;1.47;;;1.30;;
17059;SDS011;8646;49.716;9.266;2023-06-04T13:40:33;2.50;;;1.53;;
17059;SDS011;8646;49.716;9.266;2023-06-04T13:43:36;1.70;;;1.57;;
17059;SDS011;8646;49.716;9.266;2023-06-04T13:46:40;1.97;;;1.60;;
17059;SDS011;8646;49.716;9.266;2023-06-04T13:49:43;1.53;;;1.30;;
17059;SDS011;8646;49.716;9.266;2023-06-04T13:52:47;1.97;;;1.50;;
17059;SDS011;8646;49.716;9.266;2023-06-04T13:55:50;2.97;;;1.50;;
17059;SDS011;8646;49.716;9.266;2023-06-04T13:58:59;2.23;;;1.40;;
17059;SDS011;8646;49.716;9.266;2023-06-04T14:02:05;1.60;;;1.40;;
17059;SDS011;8646;49.716;9.266;2023-06-04T14:05:08;2.53;;;1.40;;
17059;SDS011;8646;49.716;9.266;2023-06-04T14:08:13;2.20;;;1.57;;
17059;SDS011;8646;49.716;9.266;2023-06-04T14:11:15;2.43;;;1.60;;
17059;SDS011;8646;49.716;9.266;2023-06-04T14:14:18;2.90;;;1.50;;
17059;SDS011;8646;49.716;9.266;2023-06-04T14:17:22;2.93;;;1.30;;
17059;SDS011;8646;49.716;9.266;2023-06-04T14:20:25;2.20;;;1.50;;
17059;SDS011;8646;49.716;9.266;2023-06-04T14:23:29;1.87;;;1.50;;
17059;SDS011;8646;49.716;9.266;2023-06-04T14:26:32;1.50;;;1.40;;
17059;SDS011;8646;49.716;9.266;2023-06-04T14:29:35;2.33;;;1.50;;
17059;SDS011;8646;49.716;9.266;2023-06-04T14:32:41;2.40;;;1.80;;
17059;SDS011;8646;49.716;9.266;2023-06-04T14:35:44;1.87;;;1.57;;
17059;SDS011;8646;49.716;9.266;2023-06-04T14:38:49;2.70;;;1.83;;
17059;SDS011;8646;49.716;9.266;2023-06-04T14:41:52;2.27;;;1.80;;
17059;SDS011;8646;49.716;9.266;2023-06-04T14:44:55;2.03;;;1.40;;
17059;SDS011;8646;49.716;9.266;2023-06-04T14:47:58;2.80;;;1.90;;
17059;SDS011;8646;49.716;9.266;2023-06-04T14:51:15;2.97;;;1.70;;
17059;SDS011;8646;49.716;9.266;2023-06-04T14:54:19;2.57;;;1.50;;
17059;SDS011;8646;49.716;9.266;2023-06-04T14:57:22;2.27;;;1.60;;
17059;SDS011;8646;49.716;9.266;2023-06-04T15:00:25;1.90;;;1.63;;
17059;SDS011;8646;49.716;9.266;2023-06-04T15:03:28;2.13;;;1.70;;
17059;SDS011;8646;49.716;9.266;2023-06-04T15:06:31;2.10;;;1.90;;
17059;SDS011;8646;49.716;9.266;2023-06-04T15:09:35;2.20;;;1.80;;
17059;SDS011;8646;49.716;9.266;2023-06-04T15:12:38;2.93;;;2.00;;
17059;SDS011;8646;49.716;9.266;2023-06-04T15:15:41;3.13;;;1.80;;
17059;SDS011;8646;49.716;9.266;2023-06-04T15:18:44;1.50;;;1.40;;
17059;SDS011;8646;49.716;9.266;2023-06-04T15:21:47;1.90;;;1.23;;
17059;SDS011;8646;49.716;9.266;2023-06-04T15:24:51;2.67;;;1.70;;
17059;SDS011;8646;49.716;9.266;2023-06-04T15:27:54;1.80;;;1.53;;
17059;SDS011;8646;49.716;9.266;2023-06-04T15:30:57;1.50;;;1.40;;
17059;SDS011;8646;49.716;9.266;2023-06-04T15:34:00;4.17;;;1.50;;
17059;SDS011;8646;49.716;9.266;2023-06-04T15:37:03;2.30;;;1.40;;
17059;SDS011;8646;49.716;9.266;2023-06-04T15:40:08;2.30;;;1.50;;
17059;SDS011;8646;49.716;9.266;2023-06-04T15:43:12;1.87;;;1.47;;
17059;SDS011;8646;49.716;9.266;2023-06-04T15:46:15;1.47;;;1.30;;
17059;SDS011;8646;49.716;9.266;2023-06-04T15:49:18;2.00;;;1.60;;
17059;SDS011;8646;49.716;9.266;2023-06-04T15:52:21;2.67;;;1.37;;
17059;SDS011;8646;49.716;9.266;2023-06-04T15:55:25;2.70;;;1.50;;
17059;SDS011;8646;49.716;9.266;2023-06-04T15:58:28;2.67;;;1.90;;
17059;SDS011;8646;49.716;9.266;2023-06-04T16:01:31;7.37;;;3.20;;
17059;SDS011;8646;49.716;9.266;2023-06-04T16:04:34;3.10;;;1.60;;
17059;SDS011;8646;49.716;9.266;2023-06-04T16:07:37;1.83;;;1.40;;
17059;SDS011;8646;49.716;9.266;2023-06-04T16:10:46;1.53;;;1.40;;
17059;SDS011;8646;49.716;9.266;2023-06-04T16:13:55;1.93;;;1.47;;
17059;SDS011;8646;49.716;9.266;2023-06-04T16:17:19;2.00;;;1.60;;
17059;SDS011;8646;49.716;9.266;2023-06-04T16:20:27;1.97;;;1.40;;
17059;SDS011;8646;49.716;9.266;2023-06-04T16:23:42;1.87;;;1.57;;
17059;SDS011;8646;49.716;9.266;2023-06-04T16:26:49;1.70;;;1.57;;
17059;SDS011;8646;49.716;9.266;2023-06-04T16:29:56;1.73;;;1.60;;
17059;SDS011;8646;49.716;9.266;2023-06-04T16:33:02;5.10;;;2.07;;
17059;SDS011;8646;49.716;9.266;2023-06-04T16:36:16;1.77;;;1.47;;
17059;SDS011;8646;49.716;9.266;2023-06-04T16:39:56;2.07;;;1.50;;
17059;SDS011;8646;49.716;9.266;2023-06-04T16:43:00;2.67;;;1.97;;
17059;SDS011;8646;49.716;9.266;2023-06-04T16:46:03;2.97;;;2.07;;
17059;SDS011;8646;49.716;9.266;2023-06-04T16:49:06;2.03;;;1.80;;
17059;SDS011;8646;49.716;9.266;2023-06-04T16:52:09;2.00;;;1.73;;
17059;SDS011;8646;49.716;9.266;2023-06-04T16:55:13;2.50;;;1.80;;
17059;SDS011;8646;49.716;9.266;2023-06-04T16:58:18;3.67;;;2.13;;
17059;SDS011;8646;49.716;9.266;2023-06-04T17:01:21;2.93;;;2.00;;
17059;SDS011;8646;49.716;9.266;2023-06-04T17:04:24;3.60;;;1.67;;
17059;SDS011;8646;49.716;9.266;2023-06-04T17:07:27;3.90;;;1.97;;
17059;SDS011;8646;49.716;9.266;2023-06-04T17:10:30;2.10;;;1.90;;
17059;SDS011;8646;49.716;9.266;2023-06-04T17:13:35;2.43;;;1.90;;
17059;SDS011;8646;49.716;9.266;2023-06-04T17:16:38;2.83;;;2.00;;
17059;SDS011;8646;49.716;9.266;2023-06-04T17:19:41;3.07;;;2.37;;
17059;SDS011;8646;49.716;9.266;2023-06-04T17:22:45;2.53;;;2.00;;
17059;SDS011;8646;49.716;9.266;2023-06-04T17:25:48;3.20;;;2.30;;
17059;SDS011;8646;49.716;9.266;2023-06-04T17:28:53;3.20;;;2.20;;
17059;SDS011;8646;49.716;9.266;2023-06-04T17:31:56;2.97;;;2.00;;
17059;SDS011;8646;49.716;9.266;2023-06-04T17:34:59;2.23;;;2.03;;
17059;SDS011;8646;49.716;9.266;2023-06-04T17:38:02;4.77;;;2.20;;
17059;SDS011;8646;49.716;9.266;2023-06-04T17:41:05;2.33;;;2.00;;
17059;SDS011;8646;49.716;9.266;2023-06-04T17:44:10;3.47;;;2.40;;
17059;SDS011;8646;49.716;9.266;2023-06-04T17:47:13;3.00;;;2.30;;
17059;SDS011;8646;49.716;9.266;2023-06-04T17:50:15;3.30;;;2.30;;
17059;SDS011;8646;49.716;9.266;2023-06-04T17:53:18;2.83;;;2.17;;
17059;SDS011;8646;49.716;9.266;2023-06-04T17:56:21;3.13;;;2.27;;
17059;SDS011;8646;49.716;9.266;2023-06-04T17:59:25;3.10;;;2.27;;
17059;SDS011;8646;49.716;9.266;2023-06-04T18:02:28;3.10;;;2.43;;
17059;SDS011;8646;49.716;9.266;2023-06-04T18:05:31;3.60;;;2.57;;
17059;SDS011;8646;49.716;9.266;2023-06-04T18:08:34;3.40;;;2.40;;
17059;SDS011;8646;49.716;9.266;2023-06-04T18:11:37;4.87;;;2.80;;
17059;SDS011;8646;49.716;9.266;2023-06-04T18:14:41;3.27;;;2.70;;
17059;SDS011;8646;49.716;9.266;2023-06-04T18:17:45;3.30;;;2.77;;
17059;SDS011;8646;49.716;9.266;2023-06-04T18:20:48;3.20;;;2.80;;
17059;SDS011;8646;49.716;9.266;2023-06-04T18:23:50;3.50;;;2.63;;
17059;SDS011;8646;49.716;9.266;2023-06-04T18:26:54;3.00;;;2.40;;
17059;SDS011;8646;49.716;9.266;2023-06-04T18:29:58;4.13;;;2.90;;
17059;SDS011;8646;49.716;9.266;2023-06-04T18:33:01;4.67;;;2.93;;
17059;SDS011;8646;49.716;9.266;2023-06-04T18:36:05;4.10;;;3.00;;
17059;SDS011;8646;49.716;9.266;2023-06-04T18:39:08;4.33;;;2.70;;
17059;SDS011;8646;49.716;9.266;2023-06-04T18:42:11;7.97;;;2.97;;
17059;SDS011;8646;49.716;9.266;2023-06-04T18:45:31;4.93;;;2.90;;
17059;SDS011;8646;49.716;9.266;2023-06-04T18:48:34;3.30;;;2.70;;